Nearby METAR Reports


KPVF - Placerville, California, USA
Distance from station: E 5mi, 14km
Updated: 05/25/2018 1:15pm
Overcast
Overcast
 Wind from SSW
Wind: SSW 3 mph , 6 km/h
Temperature: 48°F , 9°C
Dew Point: 48°F , 9°C
Humidity: 100%
Barometer: 30.13 inHg , 1020.3 hPa
Clouds: Overcast
Visibility: less than 1/4 mile , 2 km
Cloud details: Overcast 200 ft
2018/05/25 20:15 KPVF 252015Z AUTO 21003KT M1/4SM OVC002 09/09 A3013 RMK AO1
KAUN - Auburn, California, USA
Distance from station: NE 37mi, 14km
Updated: 05/25/2018 1:15pm
Overcast
Overcast
 Wind from SE
Wind: SE 7 mph , 11 km/h
Temperature: 52°F , 11°C
Dew Point: 48°F , 9°C
Humidity: 88%
Barometer: 30.13 inHg , 1020.3 hPa
Clouds: Overcast
Visibility: 5 miles , 8 km
Cloud details: Overcast 2400 ft
2018/05/25 20:15 KAUN 252015Z AUTO 14006KT 5SM OVC024 11/09 A3013 RMK AO1 P0001
 
KMHR - Mather, California, USA
Distance from station: NNW 30mi, 23km
Updated: 05/25/2018 12:45pm

 
Visibility: 23 miles
2018/05/25 19:45 KMHR 251945Z 14006KTKT 10SMSM BKN021 OVC048 16/12 A3011
KSAC - Sacramento, California, USA
Distance from station: WNW 45mi, 50km
Updated: 05/25/2018 12:53pm
Overcast
Overcast
 Wind from S
Wind: S 5 mph , 7 km/h
Temperature: 61°F , 16°C
Dew Point: 54°F , 12°C
Humidity: 77%
Barometer: 30.12 inHg , 1020 hPa
Clouds: Overcast
Visibility: 10 miles , 16 km
Cloud details: Few Clouds 2200 ft
Overcast 4900 ft
2018/05/25 19:53 KSAC 251953Z 19004KT 10SM FEW022 OVC049 16/12 A3012 RMK AO2 SLP197 T01560117
 
KSMF - Sacramento Metro, California, USA
Distance from station: NNE 50mi, 51km
Updated: 12/31/1969 4:00pm
NOT Current
unable to load KSMF data RC=404 Not Found
unable to load KSMF data RC=404 Not Found
 
KBAB - Beale AFB - Marysville, California, USA
Distance from station: NW 21mi, 34km
Updated: 05/25/2018 12:58pm
Overcast
Overcast
 Wind from SSE
Wind: SSE 13 mph , 20 km/h
Temperature: 61°F , 16°C
Dew Point: 54°F , 12°C
Humidity: 77%
Barometer: 30.10 inHg , 1019.3 hPa
Clouds: Overcast
Visibility: 10 miles , 16 km
Cloud details: Mostly cloudy 2000 ft
Overcast 2500 ft
2018/05/25 19:58 KBAB 251958Z AUTO 15011KT 10SM BKN020 OVC025 16/12 A3010 RMK AO2 BKN V OVC SLP196 T01550117 $
 
KOVE - Oroville, California, USA
Distance from station: ESE 80mi, 43km
Updated: 05/25/2018 12:53pm
Overcast
Overcast
 Wind from SE
Wind: SE 12 mph , 19 km/h
Temperature: 61°F , 16°C
Dew Point: 54°F , 12°C
Humidity: 77%
Barometer: 30.13 inHg , 1020.3 hPa
Clouds: Overcast
Visibility: 10 miles , 16 km
Cloud details: Few Clouds 1700 ft
Mostly cloudy 4300 ft
Overcast 6000 ft
2018/05/25 19:53 KOVE 251953Z AUTO 14010KT 10SM FEW017 BKN043 OVC060 16/12 A3013 RMK AO2 RAE06 SLP204 P0000 T01560117
KRDD - Redding, California, USA
Distance from station: SSE 225mi, 44km
Updated: 05/25/2018 12:53pm
Overcast
Overcast
 Wind from SSE
Wind: SSE 12 mph , 19 km/h
Temperature: 55°F , 13°C
Dew Point: 54°F , 12°C
Humidity: 94%
Barometer: 30.09 inHg , 1019 hPa
Clouds: Overcast
Visibility: 10 miles , 16 km
Cloud details: Few Clouds 900 ft
Overcast 1500 ft
2018/05/25 19:53 KRDD 251953Z 16010KT 10SM FEW009 OVC015 13/12 A3009 RMK AO2 RAE16 SLP188 P0001 T01330122
 
KTRK - Tahoe-Truckee, California, USA
Distance from station: NW 60mi, 49km
Updated: 05/25/2018 12:45pm
Overcast
Overcast
 Wind from W
Wind: W 10 mph , 17 km/h
Temperature: 48°F , 9°C
Wind Chill: 44°F , 7°C
Dew Point: 39°F , 4°C
Humidity: 71%
Barometer: 30.09 inHg , 1019 hPa
Clouds: Overcast
Visibility: 10 miles , 16 km
Cloud details: Partly cloudy 2000 ft
Mostly cloudy 2800 ft
Overcast 4300 ft
2018/05/25 19:45 KTRK 251945Z 26009KT 10SM SCT020 BKN028 OVC043 09/04 A3009
KTVL - South Lake Tahoe, California, USA
Distance from station: N 45mi, 44km
Updated: 05/25/2018 12:53pm
Overcast
Overcast
 Wind from S
Wind: S 12 mph , 19 km/h
Temperature: 48°F , 9°C
Wind Chill: 43°F , 6°C
Dew Point: 39°F , 4°C
Humidity: 71%
Barometer: 30.08 inHg , 1018.6 hPa
Clouds: Overcast
Visibility: 10 miles , 16 km
Cloud details: Few Clouds 2700 ft
Overcast 3600 ft
2018/05/25 19:53 KTVL 251953Z AUTO 19010KT 10SM FEW027 OVC036 09/04 A3008 RMK AO2 SLP157 T00890039
 
KBLU - EMIGRANT GAP, California, USA
Distance from station: NNW 31mi, 50km
Updated: 05/25/2018 7:52am
NOT Current

 
Temperature: 43°F , 6°C
Dew Point: 43°F , 6°C
Humidity: 100%
Barometer: 30.09 inHg , 1019 hPa
2018/05/25 14:52 KBLU 251452Z AUTO 06/06 A3009 RMK AO2 RAE1359 SLP153 P0000 60007 T00560056 TSNO $
KACV - Eureka, California, USA
Distance from station: ENE 387mi, 19km
Updated: 05/25/2018 1:19pm
Overcast
Overcast
 Wind from SSW
Wind: SSW 7 mph , 11 km/h
Temperature: 55°F , 13°C
Dew Point: 54°F , 12°C
Humidity: 94%
Barometer: 30.08 inHg , 1018.6 hPa
Clouds: Overcast
Visibility: 10 miles , 16 km
Cloud details: Mostly cloudy 600 ft
Overcast 3300 ft
2018/05/25 20:19 KACV 252019Z AUTO 20006KT 10SM BKN006 OVC033 13/12 A3008 RMK AO2 RAE1954 CIG 004V008 P0000 T01330117